Time;durP1;ratioP1;P1;durP2;ratioP2;P2;SDS_P1;SDS_P2;PMS_P1;PMS_P2;Temp;Humidity;BMP_temperature;BMP_pressure;BME280_temperature;BME280_humidity;BME280_pressure;Samples;Min_cycle;Max_cycle;Signal;HPM_P1;HPM_P2
2021/11/23 00:01:49;;;;;;;13.30;5.30;;;;;;;1.01;74.96;101123.28;2135641;81;21007;-72
2021/11/23 00:04:51;;;;;;;10.03;5.08;;;;;;;0.96;75.12;101131.81;2141175;81;21568;-73
2021/11/23 00:07:54;;;;;;;10.18;5.00;;;;;;;0.96;75.19;101137.05;2150568;81;21026;-72
2021/11/23 00:10:56;;;;;;;10.38;5.30;;;;;;;0.95;75.20;101141.43;2143349;81;21053;-72
2021/11/23 00:13:58;;;;;;;9.50;4.53;;;;;;;0.95;75.17;101146.66;2142211;81;20931;-73
2021/11/23 00:17:00;;;;;;;10.98;4.97;;;;;;;0.90;75.18;101136.90;2137266;82;21022;-73
2021/11/23 00:20:03;;;;;;;10.90;4.95;;;;;;;0.84;75.09;101147.20;2137232;82;21537;-73
2021/11/23 00:23:05;;;;;;;8.23;4.60;;;;;;;0.81;75.17;101149.14;2136989;82;21513;-73
2021/11/23 00:26:07;;;;;;;9.70;4.53;;;;;;;0.74;75.08;101141.25;2139600;82;21033;-73
2021/11/23 00:29:09;;;;;;;10.65;5.30;;;;;;;0.71;75.14;101144.87;2140094;82;21057;-73
2021/11/23 00:32:10;;;;;;;10.63;4.75;;;;;;;0.67;75.08;101137.63;2137627;82;21037;-73
2021/11/23 00:35:12;;;;;;;8.13;4.58;;;;;;;0.64;75.08;101134.33;2142443;82;21033;-73
2021/11/23 00:38:15;;;;;;;7.95;4.75;;;;;;;0.58;75.20;101149.02;2137368;82;21056;-73
2021/11/23 00:41:18;;;;;;;6.67;4.17;;;;;;;0.55;75.26;101141.34;2143403;82;21013;-73
2021/11/23 00:44:22;;;;;;;11.35;5.22;;;;;;;0.55;75.35;101147.40;2139221;82;21107;-73
2021/11/23 00:47:23;;;;;;;9.35;4.50;;;;;;;0.55;75.38;101153.93;2139939;82;20931;-74
2021/11/23 00:50:25;;;;;;;8.73;4.50;;;;;;;0.54;75.43;101144.88;2140353;82;22165;-73
2021/11/23 00:53:27;;;;;;;9.05;4.70;;;;;;;0.49;75.56;101142.49;2136852;82;20993;-72
2021/11/23 00:56:29;;;;;;;9.70;4.70;;;;;;;0.47;75.67;101142.18;2141549;82;20993;-73
2021/11/23 00:59:33;;;;;;;11.73;5.33;;;;;;;0.48;75.82;101129.50;2141898;82;21116;-73
2021/11/23 01:02:34;;;;;;;12.00;5.25;;;;;;;0.47;75.79;101133.05;2140202;82;20978;-73
2021/11/23 01:05:36;;;;;;;10.03;5.47;;;;;;;0.42;75.73;101138.05;2144056;82;21103;-72
2021/11/23 01:08:42;;;;;;;11.75;5.92;;;;;;;0.41;75.75;101149.39;2141422;82;20966;-73
2021/11/23 01:11:42;;;;;;;12.47;5.12;;;;;;;0.40;75.74;101149.48;2137920;82;21070;-73
2021/11/23 01:14:44;;;;;;;13.35;6.22;;;;;;;0.35;75.69;101149.70;2153827;80;21021;-73
2021/11/23 01:17:46;;;;;;;12.28;5.90;;;;;;;0.32;75.78;101134.20;2155406;81;20968;-72
2021/11/23 01:20:48;;;;;;;13.50;6.12;;;;;;;0.31;75.76;101124.69;2155573;81;21002;-72
2021/11/23 01:23:50;;;;;;;14.13;5.40;;;;;;;0.28;75.75;101119.59;2157003;81;20962;-72
2021/11/23 01:26:51;;;;;;;9.33;4.30;;;;;;;0.27;75.81;101131.43;2151258;81;21026;-72
2021/11/23 01:29:53;;;;;;;8.98;4.87;;;;;;;0.26;75.75;101126.67;2154815;81;21834;-72
2021/11/23 01:32:55;;;;;;;10.60;4.62;;;;;;;0.23;75.74;101134.66;2153561;81;21070;-72
2021/11/23 01:35:56;;;;;;;9.50;5.05;;;;;;;0.17;75.70;101134.50;2151339;81;21046;-73
2021/11/23 01:38:58;;;;;;;11.80;4.65;;;;;;;0.13;75.71;101129.03;2156147;80;21018;-72
2021/11/23 01:42:00;;;;;;;9.68;4.47;;;;;;;0.04;75.48;101126.03;2156013;80;21460;-72
2021/11/23 01:45:04;;;;;;;6.58;4.55;;;;;;;-0.06;75.62;101126.49;2153697;81;21885;-72
2021/11/23 01:48:08;;;;;;;10.40;4.92;;;;;;;-0.14;75.63;101120.80;2151386;81;21052;-72
2021/11/23 01:51:10;;;;;;;9.95;4.65;;;;;;;-0.16;75.71;101129.61;2154750;81;20967;-71
2021/11/23 01:54:12;;;;;;;13.05;5.15;;;;;;;-0.18;75.85;101133.58;2155358;80;21085;-72
2021/11/23 01:57:16;;;;;;;10.90;5.65;;;;;;;-0.19;75.84;101131.06;2155939;81;21442;-72
2021/11/23 02:00:18;;;;;;;11.00;6.30;;;;;;;-0.23;75.73;101132.95;2150362;81;21047;-72
2021/11/23 02:03:19;;;;;;;12.25;5.70;;;;;;;-0.27;75.84;101129.65;2155334;81;21031;-71
2021/11/23 02:06:22;;;;;;;9.93;5.30;;;;;;;-0.35;75.75;101130.93;2152457;81;21629;-72
2021/11/23 02:09:23;;;;;;;10.45;4.80;;;;;;;-0.48;75.81;101134.12;2150891;81;21034;-72
2021/11/23 02:12:27;;;;;;;8.20;4.45;;;;;;;-0.51;76.01;101133.40;2154494;81;21015;-71
2021/11/23 02:15:28;;;;;;;7.85;3.87;;;;;;;-0.54;76.09;101127.02;2149294;81;21032;-72
2021/11/23 02:18:31;;;;;;;12.15;4.00;;;;;;;-0.58;76.08;101129.40;2149788;81;20950;-72
2021/11/23 02:21:33;;;;;;;7.37;4.17;;;;;;;-0.60;76.19;101132.06;2150589;81;21502;-72
2021/11/23 02:24:34;;;;;;;7.28;4.62;;;;;;;-0.57;76.28;101133.69;2159863;81;20993;-71
2021/11/23 02:27:37;;;;;;;6.62;4.08;;;;;;;-0.57;76.33;101141.51;2153746;81;21007;-71
2021/11/23 02:30:52;;;;;;;10.43;3.92;;;;;;;-0.60;76.29;101139.88;2156830;81;21038;-72
2021/11/23 02:33:54;;;;;;;10.58;3.90;;;;;;;-0.64;76.28;101151.38;2157171;80;20944;-71
2021/11/23 02:36:56;;;;;;;4.85;3.42;;;;;;;-0.66;76.34;101146.69;2153977;80;20995;-72
2021/11/23 02:39:58;;;;;;;7.03;4.10;;;;;;;-0.69;76.37;101153.34;2154415;81;21002;-71
2021/11/23 02:43:00;;;;;;;6.83;3.87;;;;;;;-0.71;76.38;101149.49;2151582;81;21529;-72
2021/11/23 02:46:01;;;;;;;8.33;3.80;;;;;;;-0.73;76.38;101146.59;2154317;81;21089;-71
2021/11/23 02:49:03;;;;;;;7.15;3.90;;;;;;;-0.74;76.39;101148.33;2152545;81;21058;-71
2021/11/23 02:52:09;;;;;;;6.45;3.67;;;;;;;-0.80;76.35;101155.13;2157403;80;21577;-72
2021/11/23 02:55:09;;;;;;;8.08;3.77;;;;;;;-0.83;76.33;101155.73;2156314;81;21035;-71
2021/11/23 02:58:11;;;;;;;6.95;3.62;;;;;;;-0.90;76.40;101152.56;2159466;80;21012;-71
2021/11/23 03:01:19;;;;;;;8.10;3.65;;;;;;;-0.91;76.51;101147.78;2152820;81;21033;-71
2021/11/23 03:04:21;;;;;;;7.92;4.05;;;;;;;-0.98;76.41;101145.08;2148523;80;21019;-71
2021/11/23 03:07:24;;;;;;;6.53;3.90;;;;;;;-1.02;76.57;101156.98;2150829;81;21025;-72
2021/11/23 03:10:29;;;;;;;7.53;3.60;;;;;;;-1.06;76.63;101154.14;2155183;80;21007;-71
2021/11/23 03:13:31;;;;;;;9.93;4.25;;;;;;;-1.07;76.77;101167.62;2152554;81;21553;-72
2021/11/23 03:16:33;;;;;;;9.45;4.17;;;;;;;-1.06;76.74;101164.10;2151756;82;20989;-71
2021/11/23 03:19:35;;;;;;;8.23;3.83;;;;;;;-1.11;76.78;101172.56;2148663;81;21008;-72
2021/11/23 03:22:37;;;;;;;6.30;3.42;;;;;;;-1.10;76.85;101170.34;2148814;82;21086;-71
2021/11/23 03:25:40;;;;;;;8.10;4.28;;;;;;;-1.08;76.86;101163.31;2145535;82;21444;-71
2021/11/23 03:28:42;;;;;;;6.72;3.55;;;;;;;-1.07;76.78;101162.42;2146752;82;21022;-72
2021/11/23 03:31:43;;;;;;;6.35;3.40;;;;;;;-1.07;76.77;101163.72;2153955;82;20960;-71
2021/11/23 03:34:47;;;;;;;5.75;3.40;;;;;;;-1.10;76.53;101157.31;2149785;82;21063;-72
2021/11/23 03:37:51;;;;;;;5.05;3.52;;;;;;;-1.24;76.49;101150.12;2150093;82;21003;-72
2021/11/23 03:40:52;;;;;;;9.08;3.55;;;;;;;-1.25;76.69;101141.06;2152786;82;21618;-72
2021/11/23 03:43:54;;;;;;;6.22;3.45;;;;;;;-1.30;76.57;101148.22;2152543;81;22473;-72
2021/11/23 03:46:56;;;;;;;9.63;4.10;;;;;;;-1.36;76.76;101148.03;2151979;81;21030;-72
2021/11/23 03:49:58;;;;;;;5.37;3.47;;;;;;;-1.37;76.79;101151.55;2155227;81;20975;-72
2021/11/23 03:53:01;;;;;;;8.05;3.67;;;;;;;-1.35;76.89;101157.55;2151094;82;21136;-72
2021/11/23 03:56:03;;;;;;;5.42;3.30;;;;;;;-1.33;76.85;101141.84;2148245;82;20991;-72
2021/11/23 03:59:04;;;;;;;8.78;3.80;;;;;;;-1.34;76.86;101142.77;2152321;82;21003;-72
2021/11/23 04:02:06;;;;;;;6.37;3.98;;;;;;;-1.36;76.82;101142.81;2151303;81;20994;-71
2021/11/23 04:05:10;;;;;;;8.23;4.03;;;;;;;-1.39;76.74;101139.89;2150524;81;21526;-71
2021/11/23 04:08:12;;;;;;;9.45;4.35;;;;;;;-1.41;76.81;101142.16;2148812;82;21047;-72
2021/11/23 04:11:14;;;;;;;9.55;4.12;;;;;;;-1.43;76.93;101142.70;2153189;81;20980;-72
2021/11/23 04:14:16;;;;;;;5.78;3.85;;;;;;;-1.42;76.87;101133.52;2148385;81;21589;-71
2021/11/23 04:17:18;;;;;;;6.70;4.20;;;;;;;-1.46;76.82;101130.66;2145917;81;21080;-71
2021/11/23 04:20:20;;;;;;;10.85;4.47;;;;;;;-1.48;76.89;101136.38;2144425;81;21055;-72
2021/11/23 04:23:22;;;;;;;8.58;4.15;;;;;;;-1.50;76.74;101135.59;2143433;81;21308;-71
2021/11/23 04:26:24;;;;;;;7.80;4.25;;;;;;;-1.54;76.75;101137.11;2148862;81;21516;-72
2021/11/23 04:29:26;;;;;;;8.63;4.53;;;;;;;-1.57;76.87;101135.94;2147599;81;21087;-72
2021/11/23 04:32:29;;;;;;;6.78;4.30;;;;;;;-1.62;76.83;101134.81;2150616;81;21530;-71
2021/11/23 04:35:31;;;;;;;7.85;4.55;;;;;;;-1.64;76.81;101128.82;2149083;81;21063;-73
2021/11/23 04:38:33;;;;;;;6.75;3.90;;;;;;;-1.63;76.98;101124.87;2113926;83;21003;-72
2021/11/23 04:41:35;;;;;;;7.67;4.65;;;;;;;-1.61;76.92;101122.18;2087001;84;20945;-72
2021/11/23 04:44:37;;;;;;;10.15;5.20;;;;;;;-1.62;76.98;101124.41;2095177;84;21098;-73
2021/11/23 04:47:39;;;;;;;14.60;6.53;;;;;;;-1.60;77.08;101117.39;2090970;84;20958;-71
2021/11/23 04:50:41;;;;;;;10.95;6.08;;;;;;;-1.55;77.18;101114.57;2092321;84;21055;-72
2021/11/23 04:53:42;;;;;;;10.15;5.72;;;;;;;-1.56;76.87;101108.98;2090113;83;21496;-72
2021/11/23 04:56:44;;;;;;;8.70;5.62;;;;;;;-1.65;76.76;101112.83;2088495;84;21023;-72
2021/11/23 04:59:46;;;;;;;10.82;4.90;;;;;;;-1.70;76.88;101116.07;2085185;83;21017;-72
2021/11/23 05:02:47;;;;;;;8.30;5.03;;;;;;;-1.76;76.79;101110.67;2085816;84;21030;-73
2021/11/23 05:05:49;;;;;;;10.18;5.53;;;;;;;-1.84;76.93;101114.87;2092418;83;21410;-72
2021/11/23 05:08:52;;;;;;;8.98;5.35;;;;;;;-1.89;76.97;101112.08;2085498;84;21084;-71
2021/11/23 05:11:53;;;;;;;12.25;5.47;;;;;;;-1.94;77.13;101101.00;2083458;83;21014;-73
2021/11/23 05:14:55;;;;;;;14.87;5.45;;;;;;;-1.97;77.15;101104.61;2092094;84;21046;-72
2021/11/23 05:17:57;;;;;;;13.20;6.60;;;;;;;-1.96;77.20;101104.98;2090709;84;21058;-73
2021/11/23 05:20:58;;;;;;;9.10;5.12;;;;;;;-1.95;77.20;101105.83;2091545;83;21037;-72
2021/11/23 05:24:00;;;;;;;12.37;6.45;;;;;;;-1.94;77.29;101108.37;2087963;84;21047;-72
2021/11/23 05:27:02;;;;;;;9.68;5.30;;;;;;;-1.97;77.28;101086.40;2088879;83;21009;-74
2021/11/23 05:30:06;;;;;;;11.90;4.83;;;;;;;-2.00;77.23;101092.16;2091604;84;21058;-71
2021/11/23 05:33:08;;;;;;;9.20;5.08;;;;;;;-1.99;77.41;101096.47;2089271;84;20993;-72
2021/11/23 05:36:09;;;;;;;11.05;4.65;;;;;;;-1.98;77.32;101104.19;2092481;83;21119;-72
2021/11/23 05:39:11;;;;;;;10.55;4.60;;;;;;;-1.97;77.41;101095.50;2089158;84;21037;-73
2021/11/23 05:42:12;;;;;;;7.05;4.75;;;;;;;-1.95;77.46;101085.02;2088128;84;20985;-72
2021/11/23 05:45:14;;;;;;;8.68;4.47;;;;;;;-1.90;77.59;101095.63;2090759;83;21564;-73
2021/11/23 05:48:18;;;;;;;11.97;4.45;;;;;;;-1.86;77.49;101095.03;2095638;84;21067;-72
2021/11/23 05:51:20;;;;;;;7.50;4.72;;;;;;;-1.85;77.42;101092.38;2089092;84;21047;-72
2021/11/23 05:54:22;;;;;;;8.65;4.30;;;;;;;-1.86;77.48;101090.70;2091356;83;20983;-71
2021/11/23 05:57:24;;;;;;;9.70;4.60;;;;;;;-1.86;77.50;101089.41;2088881;83;21088;-72
2021/11/23 06:00:26;;;;;;;7.45;3.80;;;;;;;-1.85;77.45;101094.98;2089955;83;21075;-73
2021/11/23 06:03:28;;;;;;;9.55;4.37;;;;;;;-1.89;77.29;101096.47;2095165;84;21070;-73
2021/11/23 06:06:30;;;;;;;7.45;4.47;;;;;;;-1.94;77.32;101096.67;2094210;84;21091;-72
2021/11/23 06:09:32;;;;;;;7.75;5.05;;;;;;;-1.92;77.50;101088.79;2087460;84;21143;-73
2021/11/23 06:12:34;;;;;;;11.08;5.25;;;;;;;-1.89;77.48;101092.10;2084903;84;21067;-73
2021/11/23 06:15:37;;;;;;;6.50;3.62;;;;;;;-1.88;77.51;101087.77;2085042;83;20989;-72
2021/11/23 06:18:39;;;;;;;7.47;4.00;;;;;;;-1.87;77.50;101082.48;2089846;84;21052;-72
2021/11/23 06:21:42;;;;;;;10.68;3.98;;;;;;;-1.90;77.65;101079.17;2092773;84;20967;-72
2021/11/23 06:24:44;;;;;;;6.92;4.12;;;;;;;-1.92;77.60;101089.62;2091082;83;21519;-74
2021/11/23 06:27:46;;;;;;;9.05;4.15;;;;;;;-1.90;77.65;101095.63;2092665;83;21017;-72
2021/11/23 06:30:49;;;;;;;8.20;3.75;;;;;;;-1.90;77.60;101098.23;2092097;84;21158;-72
2021/11/23 06:33:54;;;;;;;8.38;4.90;;;;;;;-1.87;77.66;101095.95;2096346;84;20949;-72
2021/11/23 06:36:55;;;;;;;11.18;4.95;;;;;;;-1.84;77.73;101094.06;2091100;83;21051;-71
2021/11/23 06:39:57;;;;;;;12.50;5.47;;;;;;;-1.74;77.66;101089.34;2087514;83;21066;-71
2021/11/23 06:42:59;;;;;;;9.48;5.58;;;;;;;-1.64;77.78;101097.13;2096336;83;21034;-71
2021/11/23 06:46:01;;;;;;;11.53;5.80;;;;;;;-1.52;77.71;101098.39;2090099;84;21028;-71
2021/11/23 06:49:03;;;;;;;15.03;5.95;;;;;;;-1.43;77.74;101094.55;2091368;84;21095;-71
2021/11/23 06:52:06;;;;;;;12.20;5.50;;;;;;;-1.24;77.84;101096.73;2093867;84;21068;-71
2021/11/23 06:55:09;;;;;;;9.55;5.83;;;;;;;-1.07;77.76;101099.91;2090290;84;21049;-71
2021/11/23 06:58:11;;;;;;;11.57;5.62;;;;;;;-0.91;77.63;101100.04;2087958;84;21450;-72
2021/11/23 07:01:13;;;;;;;15.00;6.70;;;;;;;-0.80;77.53;101094.34;2088090;84;21057;-70
2021/11/23 07:04:14;;;;;;;10.03;6.03;;;;;;;-0.70;77.70;101100.84;2089343;84;20945;-73
2021/11/23 07:07:16;;;;;;;11.03;6.83;;;;;;;-0.65;77.38;101100.61;2083324;84;21606;-72
2021/11/23 07:10:18;;;;;;;11.03;5.47;;;;;;;-0.66;77.12;101098.92;2089847;83;21019;-73
2021/11/23 07:13:20;;;;;;;10.50;5.80;;;;;;;-0.66;77.18;101102.38;2093903;84;22421;-72
2021/11/23 07:16:22;;;;;;;10.85;6.10;;;;;;;-0.62;77.25;101103.94;2090110;84;21046;-73
2021/11/23 07:19:24;;;;;;;11.68;6.78;;;;;;;-0.60;77.11;101110.37;2095365;84;21600;-72
2021/11/23 07:22:25;;;;;;;11.75;6.12;;;;;;;-0.54;77.23;101104.86;2093317;84;21465;-73
2021/11/23 07:25:27;;;;;;;10.08;5.10;;;;;;;-0.44;77.24;101113.95;2087063;84;21086;-73
2021/11/23 07:28:29;;;;;;;14.93;4.90;;;;;;;-0.31;77.20;101111.17;2091004;83;22402;-72
2021/11/23 07:31:30;;;;;;;9.33;5.30;;;;;;;-0.14;77.18;101110.36;2087163;83;20992;-73
2021/11/23 07:34:32;;;;;;;7.30;4.40;;;;;;;0.01;76.93;101111.84;2090611;84;20978;-72
2021/11/23 07:37:40;;;;;;;7.05;4.05;;;;;;;0.13;76.81;101109.45;2092672;83;21480;-72
2021/11/23 07:40:41;;;;;;;8.45;4.37;;;;;;;0.25;76.62;101109.30;2092026;84;21308;-72
2021/11/23 07:43:42;;;;;;;9.10;4.62;;;;;;;0.33;76.46;101107.62;2086270;84;20981;-73
2021/11/23 07:46:44;;;;;;;8.90;3.98;;;;;;;0.49;76.46;101115.53;2097482;83;21020;-73
2021/11/23 07:49:45;;;;;;;11.48;4.83;;;;;;;0.66;75.91;101116.82;2090446;83;20976;-73
2021/11/23 07:52:47;;;;;;;9.68;4.80;;;;;;;0.79;76.02;101102.20;2090824;84;21040;-73
2021/11/23 07:55:49;;;;;;;13.83;6.55;;;;;;;1.02;75.92;101100.99;2084688;83;20961;-74
2021/11/23 07:58:51;;;;;;;7.67;4.47;;;;;;;1.33;75.72;101102.80;2089217;83;21526;-74
2021/11/23 08:01:52;;;;;;;9.15;4.53;;;;;;;1.64;75.11;101104.20;2088983;83;20977;-74
2021/11/23 08:04:54;;;;;;;9.63;4.12;;;;;;;1.91;74.83;101105.72;2089102;83;21082;-74
2021/11/23 08:07:56;;;;;;;8.98;4.25;;;;;;;2.23;74.77;101097.34;2072777;84;21046;-71
2021/11/23 08:10:59;;;;;;;10.15;4.10;;;;;;;2.44;73.73;101092.13;2073117;85;20999;-75
2021/11/23 08:14:01;;;;;;;11.05;3.70;;;;;;;2.55;72.73;101091.97;2133610;81;21040;-75
2021/11/23 08:17:03;;;;;;;11.20;4.33;;;;;;;2.72;72.58;101100.14;2146226;81;21087;-74
2021/11/23 08:20:07;;;;;;;8.38;4.62;;;;;;;2.94;72.56;101099.21;2151218;81;21055;-74
2021/11/23 08:23:09;;;;;;;9.68;4.60;;;;;;;3.20;72.63;101093.66;2127329;81;21653;-73
2021/11/23 08:26:10;;;;;;;9.43;4.70;;;;;;;3.43;71.85;101104.50;2153098;81;21030;-73
2021/11/23 08:29:12;;;;;;;10.48;5.22;;;;;;;3.68;71.87;101088.03;2143777;81;21426;-74
2021/11/23 08:32:14;;;;;;;9.88;4.50;;;;;;;3.92;70.83;101096.95;2148913;81;20980;-75
2021/11/23 08:35:18;;;;;;;7.72;4.50;;;;;;;3.93;70.55;101089.44;2149878;81;21485;-75
2021/11/23 08:38:20;;;;;;;8.75;4.53;;;;;;;4.07;69.24;101089.02;2148521;81;21150;-74
2021/11/23 08:41:22;;;;;;;9.10;4.87;;;;;;;4.20;70.20;101083.33;2151045;81;21053;-75
2021/11/23 08:44:24;;;;;;;7.83;4.78;;;;;;;4.11;69.62;101093.11;2150646;81;21009;-74
2021/11/23 08:47:26;;;;;;;14.23;4.80;;;;;;;4.16;69.59;101093.65;2151305;80;21107;-74
2021/11/23 08:50:29;;;;;;;10.00;4.90;;;;;;;4.44;69.81;101085.59;2144694;81;20996;-74
2021/11/23 08:53:31;;;;;;;7.92;4.17;;;;;;;4.56;68.86;101098.41;2150114;81;21038;-74
2021/11/23 08:56:38;;;;;;;9.83;4.85;;;;;;;4.32;68.29;101094.80;2148914;81;20969;-74
2021/11/23 08:59:43;;;;;;;14.55;5.67;;;;;;;4.09;69.12;101102.42;2151271;81;20979;-74
2021/11/23 09:02:49;;;;;;;11.63;4.80;;;;;;;3.94;68.90;101107.34;2150683;81;21014;-74
2021/11/23 09:05:52;;;;;;;16.55;7.72;;;;;;;3.79;69.28;101107.87;2150032;81;21052;-75
2021/11/23 09:08:55;;;;;;;12.23;6.22;;;;;;;3.66;69.67;101117.47;2151755;81;20949;-75
2021/11/23 09:11:58;;;;;;;14.28;6.83;;;;;;;3.54;69.47;101115.16;2141162;81;21872;-74
2021/11/23 09:14:59;;;;;;;14.18;6.05;;;;;;;3.42;69.97;101114.16;2149058;81;21031;-74
2021/11/23 09:18:03;;;;;;;9.78;4.72;;;;;;;3.39;70.40;101111.73;2150777;81;21518;-74
2021/11/23 09:21:05;;;;;;;9.25;4.40;;;;;;;3.37;70.48;101113.59;2154193;82;21050;-76
2021/11/23 09:24:06;;;;;;;16.05;5.62;;;;;;;3.37;70.26;101097.86;2147819;82;20984;-75
2021/11/23 09:27:08;;;;;;;17.57;8.18;;;;;;;3.32;70.50;101104.72;2151090;82;21020;-74
2021/11/23 09:30:14;;;;;;;17.55;6.00;;;;;;;3.32;70.82;101099.48;2154254;81;20947;-74
2021/11/23 09:33:16;;;;;;;12.30;4.97;;;;;;;3.31;70.63;101093.00;2152458;81;21008;-75
2021/11/23 09:36:18;;;;;;;10.15;4.33;;;;;;;3.28;70.70;101082.70;2152691;82;21053;-75
2021/11/23 09:39:20;;;;;;;12.88;5.90;;;;;;;3.27;71.10;101081.03;2153801;82;20983;-74
2021/11/23 09:42:23;;;;;;;14.90;5.70;;;;;;;3.27;71.53;101081.03;2155463;82;21471;-74
2021/11/23 09:45:25;;;;;;;14.35;5.50;;;;;;;3.33;71.90;101078.02;2152363;82;21073;-75
2021/11/23 09:48:27;;;;;;;13.18;5.83;;;;;;;3.50;72.00;101073.84;2156939;81;21574;-71
2021/11/23 09:51:29;;;;;;;11.48;5.28;;;;;;;3.58;71.90;101078.61;2152912;81;20967;-74
2021/11/23 09:54:30;;;;;;;12.15;5.12;;;;;;;3.60;71.65;101084.58;2159174;82;20961;-74
2021/11/23 09:57:33;;;;;;;17.57;5.58;;;;;;;3.56;71.89;101084.42;2147175;82;21041;-74
2021/11/23 10:00:39;;;;;;;12.73;5.35;;;;;;;3.56;71.85;101085.26;2152382;81;21036;-74
2021/11/23 10:03:40;;;;;;;11.65;5.45;;;;;;;3.54;72.27;101080.56;2151759;80;20971;-74
2021/11/23 10:07:07;;;;;;;10.53;4.97;;;;;;;3.50;72.60;101071.22;2149798;82;21000;-74
2021/11/23 10:10:25;;;;;;;13.70;5.10;;;;;;;3.50;72.91;101063.83;2153376;82;21065;-73
2021/11/23 10:13:44;;;;;;;16.35;5.20;;;;;;;3.53;73.41;101069.71;2150141;82;21003;-73
2021/11/23 10:16:47;;;;;;;11.97;4.80;;;;;;;3.54;73.43;101075.80;2150919;81;21023;-76
2021/11/23 10:19:49;;;;;;;10.50;5.03;;;;;;;3.57;73.64;101075.12;2152248;81;21828;-74
2021/11/23 10:22:50;;;;;;;13.55;5.25;;;;;;;3.58;74.04;101062.39;2148399;81;20968;-74
2021/11/23 10:25:57;;;;;;;12.68;5.20;;;;;;;3.59;74.19;101064.54;2107259;83;21506;-74
2021/11/23 10:29:03;;;;;;;9.38;5.30;;;;;;;3.63;74.47;101044.17;2086855;84;21083;-74
2021/11/23 10:32:15;;;;;;;10.85;5.28;;;;;;;3.65;74.79;101045.77;2091249;84;21085;-74
2021/11/23 10:38:44;;;;;;;13.32;5.85;;;;;;;3.73;75.07;101057.09;2129944;82;21073;-74
2021/11/23 10:41:56;;;;;;;12.25;4.85;;;;;;;3.77;75.31;101062.50;2131890;82;21010;-75
2021/11/23 10:44:58;;;;;;;12.13;5.53;;;;;;;3.75;75.49;101065.23;2123167;82;21053;-75
2021/11/23 10:48:03;;;;;;;15.35;5.85;;;;;;;3.71;75.56;101072.92;2122559;82;21453;-74
2021/11/23 10:51:12;;;;;;;10.50;5.47;;;;;;;3.66;75.66;101073.72;2147925;81;21013;-75
2021/11/23 10:54:18;;;;;;;11.45;5.25;;;;;;;3.64;75.77;101072.13;2121688;82;21579;-74
2021/11/23 10:57:21;;;;;;;13.53;5.40;;;;;;;3.64;76.07;101061.63;2088444;83;21667;-75
2021/11/23 11:00:27;;;;;;;9.30;4.95;;;;;;;3.62;76.24;101070.06;2127400;82;21023;-75
2021/11/23 11:03:32;;;;;;;14.07;5.05;;;;;;;3.61;76.63;101068.39;2124297;82;21049;-74
2021/11/23 11:06:37;;;;;;;15.63;5.28;;;;;;;3.62;76.90;101064.81;2144263;81;21101;-74
2021/11/23 11:09:40;;;;;;;10.13;4.42;;;;;;;3.65;77.01;101069.86;2149560;81;21010;-73
2021/11/23 11:12:42;;;;;;;11.70;4.90;;;;;;;3.69;77.00;101052.52;2148342;81;21030;-74
2021/11/23 11:15:50;;;;;;;10.23;4.92;;;;;;;3.73;77.16;101063.65;2149223;81;21013;-74
2021/11/23 11:19:12;;;;;;;10.13;4.33;;;;;;;3.78;77.15;101067.66;2148450;81;21022;-75
2021/11/23 11:22:23;;;;;;;12.90;5.12;;;;;;;3.82;77.28;101063.87;2147861;82;20990;-74
2021/11/23 11:25:31;;;;;;;8.63;4.22;;;;;;;3.84;77.37;101059.02;2121807;82;21533;-74
2021/11/23 11:28:53;;;;;;;10.60;5.40;;;;;;;3.92;77.63;101064.61;2121378;82;21446;-74
2021/11/23 11:31:58;;;;;;;8.33;4.97;;;;;;;3.96;77.84;101066.08;2147229;81;21563;-75
2021/11/23 11:35:25;;;;;;;8.73;4.78;;;;;;;3.98;77.62;101057.64;2146646;81;21049;-75
2021/11/23 11:38:32;;;;;;;8.65;5.17;;;;;;;3.99;77.78;101057.52;2112260;82;21064;-75
2021/11/23 11:41:40;;;;;;;10.95;5.17;;;;;;;3.98;77.85;101055.84;2056343;84;20990;-75
2021/11/23 11:44:46;;;;;;;15.68;5.58;;;;;;;3.94;77.82;101063.57;2130344;82;21021;-73
2021/11/23 11:47:49;;;;;;;9.40;4.75;;;;;;;3.92;78.05;101054.94;2127561;82;21641;-73
2021/11/23 11:51:07;;;;;;;9.73;4.50;;;;;;;3.96;78.26;101055.58;2128411;82;20989;-73
2021/11/23 11:54:22;;;;;;;8.55;5.03;;;;;;;3.98;78.27;101061.09;2124782;82;21080;-73
2021/11/23 11:57:30;;;;;;;13.98;5.30;;;;;;;4.02;78.47;101064.36;2125639;82;21099;-73
2021/11/23 12:00:37;;;;;;;9.33;4.85;;;;;;;4.07;78.54;101058.81;2127863;82;21089;-73
2021/11/23 12:03:38;;;;;;;11.57;5.33;;;;;;;4.08;79.01;101066.57;2126238;82;21028;-72
2021/11/23 12:07:07;;;;;;;8.53;5.03;;;;;;;4.09;78.89;101060.87;2125683;82;20985;-74
2021/11/23 12:10:32;;;;;;;11.70;5.03;;;;;;;4.10;78.79;101057.29;2126292;82;21006;-74
2021/11/23 12:13:59;;;;;;;10.20;5.60;;;;;;;4.08;78.86;101067.05;2125943;82;21072;-75
2021/11/23 12:17:14;;;;;;;10.13;5.00;;;;;;;3.98;78.90;101066.83;2124650;82;21025;-74
2021/11/23 12:20:48;;;;;;;10.00;5.33;;;;;;;3.90;79.11;101066.02;2127666;82;21467;-75
2021/11/23 12:23:58;;;;;;;9.50;4.58;;;;;;;3.81;79.32;101060.89;2081714;84;21041;-70
2021/11/23 12:27:13;;;;;;;8.90;4.40;;;;;;;3.75;79.57;101050.80;2127161;82;21097;-72
2021/11/23 12:30:18;;;;;;;9.38;4.90;;;;;;;3.71;79.88;101065.05;2125798;82;21111;-73
2021/11/23 12:33:21;;;;;;;8.93;5.10;;;;;;;3.74;80.33;101058.76;2126293;82;21073;-73
2021/11/23 12:36:26;;;;;;;8.43;5.72;;;;;;;3.72;80.27;101055.41;2126377;82;21052;-73
2021/11/23 12:39:39;;;;;;;8.90;5.62;;;;;;;3.69;80.12;101055.59;2100359;83;21023;-73
2021/11/23 12:42:54;;;;;;;8.05;5.72;;;;;;;3.68;80.17;101053.91;2106589;84;20998;-73
2021/11/23 12:45:56;;;;;;;10.90;5.53;;;;;;;3.66;80.25;101051.41;2101168;83;21891;-73
2021/11/23 12:48:58;;;;;;;13.03;6.12;;;;;;;3.66;80.30;101058.41;2108574;84;20998;-73
2021/11/23 12:52:15;;;;;;;11.00;6.00;;;;;;;3.67;80.75;101048.30;2109688;83;21312;-73
2021/11/23 12:55:18;;;;;;;8.73;5.10;;;;;;;3.65;80.59;101060.67;2110355;83;21025;-74
2021/11/23 12:58:20;;;;;;;9.53;6.45;;;;;;;3.61;80.53;101059.20;2107972;83;21029;-73
2021/11/23 13:01:29;;;;;;;10.18;6.30;;;;;;;3.57;80.76;101066.41;2089859;84;21508;-73
2021/11/23 13:04:51;;;;;;;9.03;6.85;;;;;;;3.56;80.83;101072.13;2069655;85;21117;-73
2021/11/23 13:08:07;;;;;;;9.33;6.92;;;;;;;3.55;80.72;101071.77;2010830;86;21273;-74
2021/11/23 13:11:15;;;;;;;11.20;7.15;;;;;;;3.57;81.00;101072.49;2009176;87;22413;-73
2021/11/23 13:14:19;;;;;;;13.43;8.08;;;;;;;3.59;80.92;101076.34;2012319;87;21113;-74
2021/11/23 13:18:07;;;;;;;12.28;7.03;;;;;;;3.58;80.92;101082.07;2012161;87;21018;-73
2021/11/23 13:21:10;;;;;;;14.28;7.47;;;;;;;3.56;80.99;101082.63;2014179;86;21085;-72
2021/11/23 13:24:12;;;;;;;8.60;6.62;;;;;;;3.58;81.16;101082.07;2012876;87;21395;-73
2021/11/23 13:27:14;;;;;;;11.70;7.72;;;;;;;3.57;81.08;101091.34;2013394;87;21136;-73
2021/11/23 13:30:49;;;;;;;12.65;7.78;;;;;;;3.56;81.24;101085.26;1980374;88;21079;-73
2021/11/23 13:34:07;;;;;;;15.83;8.58;;;;;;;3.55;81.31;101090.14;2017427;87;21096;-73
2021/11/23 13:37:08;;;;;;;10.55;8.18;;;;;;;3.56;81.54;101081.32;2014138;87;21131;-73
2021/11/23 13:40:24;;;;;;;16.05;9.18;;;;;;;3.55;81.68;101078.81;2008942;87;21056;-74
2021/11/23 13:43:27;;;;;;;12.73;9.48;;;;;;;3.51;81.92;101082.08;2049151;85;21523;-73
2021/11/23 13:46:53;;;;;;;17.12;7.70;;;;;;;3.50;81.91;101086.97;2052227;85;21577;-74
2021/11/23 13:50:00;;;;;;;13.75;8.10;;;;;;;3.49;81.92;101081.36;2044246;85;21069;-73
2021/11/23 13:53:01;;;;;;;11.83;7.83;;;;;;;3.50;82.00;101082.19;2047965;84;21002;-74
2021/11/23 13:56:13;;;;;;;10.35;7.70;;;;;;;3.46;82.17;101084.63;2049309;85;21069;-73
2021/11/23 13:59:17;;;;;;;10.40;6.60;;;;;;;3.44;82.02;101089.98;1989538;88;20993;-74
2021/11/23 14:02:19;;;;;;;9.50;7.05;;;;;;;3.46;82.28;101092.49;1986820;88;21583;-73
2021/11/23 14:05:41;;;;;;;11.43;7.58;;;;;;;3.48;82.14;101092.77;1987183;88;21211;-74
2021/11/23 14:08:43;;;;;;;12.70;8.38;;;;;;;3.49;82.08;101093.16;2012218;85;21109;-73
2021/11/23 14:12:03;;;;;;;12.03;8.88;;;;;;;3.50;82.14;101086.97;2010994;87;21058;-72
2021/11/23 14:15:19;;;;;;;19.32;10.18;;;;;;;3.49;82.19;101090.55;2009684;87;20974;-65
2021/11/23 14:18:29;;;;;;;31.57;13.48;;;;;;;3.48;82.30;101096.70;2012982;87;21050;-72
2021/11/23 14:21:31;;;;;;;28.30;10.65;;;;;;;3.49;82.25;101098.41;2011315;87;21699;-61
2021/11/23 14:24:39;;;;;;;36.58;15.15;;;;;;;3.49;82.45;101098.41;2008935;87;20990;-65